Time;durP1;ratioP1;P1;durP2;ratioP2;P2;SDS_P1;SDS_P2;PMS_P1;PMS_P2;Temp;Humidity;BMP_temperature;BMP_pressure;BME280_temperature;BME280_humidity;BME280_pressure;Samples;Min_cycle;Max_cycle;Signal;HPM_P1;HPM_P2
2021/12/14 00:00:43;;;;;;;;;;;21.40;50.00;;;;;;5041124;28;19920;-68
2021/12/14 00:03:09;;;;;;;;;;;21.40;50.10;;;;;;5036282;28;19923;-67
2021/12/14 00:05:36;;;;;;;;;;;21.40;50.10;;;;;;5037712;28;20004;-67
2021/12/14 00:08:03;;;;;;;;;;;21.40;50.10;;;;;;5043210;28;19909;-68
2021/12/14 00:13:11;;;;;;;;;;;21.40;50.10;;;;;;5044469;28;19909;-68
2021/12/14 00:15:37;;;;;;;;;;;21.40;50.10;;;;;;5043708;28;19943;-67
2021/12/14 00:18:04;;;;;;;;;;;21.30;50.00;;;;;;5042699;28;19920;-68
2021/12/14 00:20:36;;;;;;;;;;;21.30;50.00;;;;;;5036983;28;20013;-68
2021/12/14 00:25:36;;;;;;;;;;;21.30;50.10;;;;;;5039403;28;19917;-68
2021/12/14 00:28:06;;;;;;;;;;;21.30;50.10;;;;;;5043861;28;19962;-67
2021/12/14 00:30:33;;;;;;;;;;;21.30;50.10;;;;;;5043225;28;20000;-68
2021/12/14 00:32:59;;;;;;;;;;;21.30;50.10;;;;;;5037959;28;19912;-68
2021/12/14 00:35:25;;;;;;;;;;;21.30;50.10;;;;;;5040004;28;20042;-68
2021/12/14 00:37:58;;;;;;;;;;;21.30;50.10;;;;;;5042180;28;20372;-68
2021/12/14 00:40:26;;;;;;;;;;;21.20;50.00;;;;;;5039441;28;20330;-68
2021/12/14 00:42:52;;;;;;;;;;;21.30;50.10;;;;;;5042986;28;19948;-63
2021/12/14 00:45:21;;;;;;;;;;;21.20;50.10;;;;;;5041964;28;19917;-68
2021/12/14 00:47:48;;;;;;;;;;;21.20;50.10;;;;;;5042640;28;19913;-68
2021/12/14 00:50:13;;;;;;;;;;;21.20;50.10;;;;;;5040856;28;19913;-67
2021/12/14 00:52:41;;;;;;;;;;;21.20;50.10;;;;;;5044521;28;20324;-64
2021/12/14 00:55:08;;;;;;;;;;;21.20;50.10;;;;;;5043190;28;19909;-67
2021/12/14 00:57:36;;;;;;;;;;;21.20;50.10;;;;;;5044412;28;20027;-67
2021/12/14 01:00:05;;;;;;;;;;;21.20;50.20;;;;;;5044109;28;19948;-68
2021/12/14 01:02:30;;;;;;;;;;;21.20;50.20;;;;;;5043348;28;21941;-68
2021/12/14 01:04:58;;;;;;;;;;;21.10;50.20;;;;;;5043901;28;19909;-64
2021/12/14 01:07:27;;;;;;;;;;;21.20;50.20;;;;;;5048451;28;20038;-68
2021/12/14 01:09:56;;;;;;;;;;;21.10;50.10;;;;;;5048659;28;19920;-67
2021/12/14 01:12:34;;;;;;;;;;;21.20;50.20;;;;;;5049006;28;19919;-68
2021/12/14 01:15:50;;;;;;;;;;;21.10;50.20;;;;;;5043227;28;19909;-67
2021/12/14 01:18:03;;;;;;;;;;;21.10;50.20;;;;;;5043108;28;19913;-68
2021/12/14 01:20:36;;;;;;;;;;;21.10;50.20;;;;;;5041341;28;20064;-67
2021/12/14 01:23:03;;;;;;;;;;;21.10;50.20;;;;;;5045581;28;19909;-66
2021/12/14 01:25:31;;;;;;;;;;;21.10;50.20;;;;;;5044142;28;19970;-67
2021/12/14 01:27:57;;;;;;;;;;;21.00;50.20;;;;;;5046430;28;19908;-67
2021/12/14 01:30:32;;;;;;;;;;;21.00;50.20;;;;;;5046213;28;19913;-67
2021/12/14 01:33:01;;;;;;;;;;;21.10;50.30;;;;;;5044018;28;20356;-68
2021/12/14 01:35:29;;;;;;;;;;;21.00;50.20;;;;;;5043894;28;19913;-68
2021/12/14 01:38:01;;;;;;;;;;;21.00;50.20;;;;;;5045742;28;20614;-68
2021/12/14 01:40:52;;;;;;;;;;;21.00;50.30;;;;;;5042616;28;19917;-67
2021/12/14 01:43:15;;;;;;;;;;;21.00;50.30;;;;;;5046127;28;19912;-68
2021/12/14 01:45:40;;;;;;;;;;;21.00;50.30;;;;;;5043494;28;19905;-64
2021/12/14 01:48:06;;;;;;;;;;;21.00;50.30;;;;;;5047487;28;19923;-67
2021/12/14 01:50:33;;;;;;;;;;;21.00;50.30;;;;;;5042012;28;19920;-67
2021/12/14 01:52:59;;;;;;;;;;;21.00;50.30;;;;;;5048002;28;19939;-68
2021/12/14 01:55:27;;;;;;;;;;;20.90;50.30;;;;;;5045643;28;19917;-67
2021/12/14 01:57:54;;;;;;;;;;;21.00;50.30;;;;;;5046154;28;19916;-67
2021/12/14 02:00:33;;;;;;;;;;;21.00;50.30;;;;;;5044338;28;19916;-65
2021/12/14 02:03:00;;;;;;;;;;;20.90;50.30;;;;;;5046201;28;20233;-67
2021/12/14 02:05:32;;;;;;;;;;;20.90;50.30;;;;;;5043277;28;20016;-67
2021/12/14 02:07:59;;;;;;;;;;;20.90;50.30;;;;;;5046858;28;19950;-68
2021/12/14 02:10:30;;;;;;;;;;;20.90;50.40;;;;;;5042108;28;19974;-68
2021/12/14 02:12:56;;;;;;;;;;;20.90;50.30;;;;;;5047661;28;19978;-68
2021/12/14 02:15:27;;;;;;;;;;;20.90;50.40;;;;;;5042431;28;19917;-67
2021/12/14 02:17:55;;;;;;;;;;;20.90;50.30;;;;;;5046770;28;20009;-64
2021/12/14 02:20:24;;;;;;;;;;;20.90;50.40;;;;;;5038334;28;20566;-67
2021/12/14 02:22:50;;;;;;;;;;;20.90;50.40;;;;;;5046444;28;19920;-68
2021/12/14 02:25:16;;;;;;;;;;;20.90;50.40;;;;;;5043209;28;20345;-68
2021/12/14 02:27:43;;;;;;;;;;;20.90;50.40;;;;;;5046581;28;19921;-68
2021/12/14 02:30:11;;;;;;;;;;;20.90;50.40;;;;;;5046267;28;19917;-63
2021/12/14 02:32:37;;;;;;;;;;;20.90;50.40;;;;;;5045852;28;19913;-68
2021/12/14 02:35:08;;;;;;;;;;;20.80;50.30;;;;;;5043145;28;19915;-68
2021/12/14 02:37:36;;;;;;;;;;;20.80;50.30;;;;;;5046944;28;19972;-67
2021/12/14 02:40:15;;;;;;;;;;;20.80;50.40;;;;;;5045491;28;19959;-67
2021/12/14 02:42:40;;;;;;;;;;;20.80;50.40;;;;;;5041293;28;19966;-68
2021/12/14 02:45:07;;;;;;;;;;;20.80;50.40;;;;;;5045356;28;19993;-63
2021/12/14 02:47:32;;;;;;;;;;;20.80;50.40;;;;;;5047034;28;20046;-63
2021/12/14 02:49:58;;;;;;;;;;;20.80;50.40;;;;;;5044916;28;20024;-68
2021/12/14 02:52:35;;;;;;;;;;;20.80;50.40;;;;;;5045306;28;20243;-63
2021/12/14 02:55:07;;;;;;;;;;;20.80;50.40;;;;;;5044497;28;19912;-67
2021/12/14 02:57:35;;;;;;;;;;;20.80;50.40;;;;;;5044827;28;19912;-67
2021/12/14 03:00:03;;;;;;;;;;;20.80;50.50;;;;;;5044897;28;20474;-68
2021/12/14 03:02:30;;;;;;;;;;;20.70;50.40;;;;;;5043184;28;20002;-68
2021/12/14 03:05:01;;;;;;;;;;;20.70;50.40;;;;;;5042620;28;19913;-64
2021/12/14 03:07:29;;;;;;;;;;;20.70;50.40;;;;;;5038594;28;20482;-67
2021/12/14 03:10:00;;;;;;;;;;;20.70;50.50;;;;;;5046500;28;20295;-68
2021/12/14 03:12:31;;;;;;;;;;;20.70;50.50;;;;;;5046748;28;19916;-67
2021/12/14 03:15:09;;;;;;;;;;;20.70;50.50;;;;;;5042578;28;19909;-67
2021/12/14 03:17:34;;;;;;;;;;;20.70;50.50;;;;;;5045446;28;19922;-67
2021/12/14 03:20:03;;;;;;;;;;;20.70;50.50;;;;;;5042984;28;19912;-67
2021/12/14 03:22:35;;;;;;;;;;;20.70;50.50;;;;;;5044624;28;19913;-68
2021/12/14 03:25:01;;;;;;;;;;;20.70;50.50;;;;;;5045904;28;19913;-68
2021/12/14 03:27:26;;;;;;;;;;;20.70;50.50;;;;;;5043526;28;20357;-67
2021/12/14 03:29:52;;;;;;;;;;;20.60;50.50;;;;;;5040660;28;19928;-68
2021/12/14 03:32:18;;;;;;;;;;;20.70;50.50;;;;;;5045510;28;20316;-64
2021/12/14 03:34:44;;;;;;;;;;;20.60;50.50;;;;;;5043082;28;19913;-67
2021/12/14 03:37:11;;;;;;;;;;;20.60;50.60;;;;;;5044396;28;19920;-63
2021/12/14 03:39:39;;;;;;;;;;;20.60;50.50;;;;;;5045336;28;19908;-68
2021/12/14 03:42:10;;;;;;;;;;;20.60;50.50;;;;;;5044686;28;20020;-63
2021/12/14 03:44:38;;;;;;;;;;;20.60;50.60;;;;;;5042920;28;19913;-67
2021/12/14 03:47:06;;;;;;;;;;;20.60;50.60;;;;;;5043044;28;19934;-67
2021/12/14 03:49:33;;;;;;;;;;;20.60;50.60;;;;;;5043112;28;19913;-67
2021/12/14 03:51:59;;;;;;;;;;;20.60;50.60;;;;;;5041701;28;20317;-67
2021/12/14 03:54:25;;;;;;;;;;;20.60;50.60;;;;;;5043689;28;19913;-67
2021/12/14 03:56:51;;;;;;;;;;;20.60;50.60;;;;;;5044141;28;19938;-67
2021/12/14 03:59:17;;;;;;;;;;;20.60;50.60;;;;;;5044037;28;20016;-67
2021/12/14 04:01:44;;;;;;;;;;;20.50;50.60;;;;;;5040365;28;20103;-65
2021/12/14 04:04:15;;;;;;;;;;;20.50;50.60;;;;;;5041716;28;19963;-67
2021/12/14 04:06:42;;;;;;;;;;;20.50;50.60;;;;;;5043509;28;20400;-67
2021/12/14 04:09:09;;;;;;;;;;;20.50;50.60;;;;;;5043778;28;20049;-67
2021/12/14 04:11:34;;;;;;;;;;;20.50;50.60;;;;;;5042237;28;19917;-68
2021/12/14 04:14:00;;;;;;;;;;;20.50;50.60;;;;;;5045039;28;21362;-67
2021/12/14 04:16:26;;;;;;;;;;;20.50;50.60;;;;;;5043806;28;19912;-68
2021/12/14 04:18:52;;;;;;;;;;;20.50;50.60;;;;;;5042198;28;19922;-65
2021/12/14 04:21:19;;;;;;;;;;;20.50;50.60;;;;;;5042199;28;20431;-63
2021/12/14 04:23:47;;;;;;;;;;;20.50;50.60;;;;;;5051781;28;19953;-67
2021/12/14 04:26:14;;;;;;;;;;;20.50;50.70;;;;;;5040055;28;20060;-67
2021/12/14 04:28:41;;;;;;;;;;;20.50;50.70;;;;;;5042647;28;19986;-68
2021/12/14 04:31:07;;;;;;;;;;;20.50;50.70;;;;;;5042704;28;19916;-67
2021/12/14 04:33:34;;;;;;;;;;;20.50;50.70;;;;;;5045466;28;19934;-64
2021/12/14 04:36:03;;;;;;;;;;;20.50;50.70;;;;;;5043802;28;19909;-65
2021/12/14 04:38:31;;;;;;;;;;;20.40;50.70;;;;;;5043572;28;19920;-67
2021/12/14 04:52:09;;;;;;;;;;;20.40;50.70;;;;;;5046283;28;20225;-67
2021/12/14 04:54:47;;;;;;;;;;;20.40;50.70;;;;;;5045550;28;20038;-63
2021/12/14 04:57:21;;;;;;;;;;;20.40;50.70;;;;;;5045442;28;19936;-67
2021/12/14 04:59:47;;;;;;;;;;;20.40;50.70;;;;;;5043624;28;19924;-68
2021/12/14 05:02:15;;;;;;;;;;;20.40;50.70;;;;;;5041870;28;20357;-68
2021/12/14 05:04:41;;;;;;;;;;;20.40;50.70;;;;;;5044886;28;19909;-64
2021/12/14 05:09:51;;;;;;;;;;;20.40;50.70;;;;;;5046070;28;20620;-68
2021/12/14 05:12:19;;;;;;;;;;;20.40;50.70;;;;;;5044787;28;20023;-67
2021/12/14 05:14:44;;;;;;;;;;;20.40;51.30;;;;;;5046549;28;19917;-66
2021/12/14 05:17:12;;;;;;;;;;;20.40;50.80;;;;;;5048206;28;20265;-68
2021/12/14 05:19:39;;;;;;;;;;;20.40;50.80;;;;;;5046465;28;20023;-64
2021/12/14 05:22:07;;;;;;;;;;;20.40;50.80;;;;;;5044397;28;19909;-64
2021/12/14 05:24:32;;;;;;;;;;;20.40;50.80;;;;;;5044103;28;20424;-68
2021/12/14 05:27:02;;;;;;;;;;;20.30;50.70;;;;;;5040361;28;19923;-68
2021/12/14 05:29:28;;;;;;;;;;;20.30;50.80;;;;;;5044053;28;19912;-64
2021/12/14 05:31:54;;;;;;;;;;;20.30;50.80;;;;;;5043557;28;19917;-67
2021/12/14 05:34:22;;;;;;;;;;;20.30;50.80;;;;;;5045430;28;19915;-67
2021/12/14 05:36:47;;;;;;;;;;;20.40;50.80;;;;;;5040834;28;19913;-63
2021/12/14 05:44:29;;;;;;;;;;;20.40;50.90;;;;;;5036974;28;19920;-67
2021/12/14 05:46:56;;;;;;;;;;;20.30;50.80;;;;;;5041205;28;20366;-67
2021/12/14 05:49:23;;;;;;;;;;;20.40;50.90;;;;;;5036446;28;19913;-67
2021/12/14 05:51:49;;;;;;;;;;;20.30;50.80;;;;;;5041431;28;19917;-67
2021/12/14 05:54:29;;;;;;;;;;;20.40;51.00;;;;;;5043225;28;19965;-67
2021/12/14 05:56:55;;;;;;;;;;;20.30;50.80;;;;;;5039884;28;19921;-67
2021/12/14 05:59:22;;;;;;;;;;;20.30;50.90;;;;;;5039729;28;20223;-67
2021/12/14 06:01:48;;;;;;;;;;;20.30;50.90;;;;;;5042353;28;20248;-67
2021/12/14 06:04:13;;;;;;;;;;;20.30;50.90;;;;;;5039552;28;19920;-67
2021/12/14 06:06:41;;;;;;;;;;;20.30;50.90;;;;;;5039590;28;19920;-67
2021/12/14 06:09:11;;;;;;;;;;;20.30;50.90;;;;;;5042857;28;20693;-67
2021/12/14 06:11:37;;;;;;;;;;;20.30;51.00;;;;;;5041001;28;19978;-67
2021/12/14 06:14:03;;;;;;;;;;;20.30;51.00;;;;;;5044511;28;19909;-68
2021/12/14 06:16:35;;;;;;;;;;;20.30;51.00;;;;;;5044366;28;19956;-67
2021/12/14 06:19:11;;;;;;;;;;;20.30;51.00;;;;;;5043943;28;19952;-63
2021/12/14 06:21:37;;;;;;;;;;;20.30;51.00;;;;;;5034441;28;19912;-67
2021/12/14 06:24:04;;;;;;;;;;;20.30;51.10;;;;;;5044486;28;20301;-65
2021/12/14 06:26:37;;;;;;;;;;;20.30;51.10;;;;;;5037088;28;20510;-67
2021/12/14 06:29:04;;;;;;;;;;;20.30;51.10;;;;;;5035469;28;20236;-67
2021/12/14 06:31:29;;;;;;;;;;;20.30;51.10;;;;;;5039564;28;19921;-64
2021/12/14 06:33:55;;;;;;;;;;;20.30;51.10;;;;;;5037402;28;20004;-67
2021/12/14 06:36:51;;;;;;;;;;;20.30;51.10;;;;;;5042873;28;19917;-67
2021/12/14 06:39:17;;;;;;;;;;;20.30;51.10;;;;;;5043113;28;19913;-67
2021/12/14 06:41:43;;;;;;;;;;;20.30;51.10;;;;;;5041274;28;19948;-65
2021/12/14 06:44:08;;;;;;;;;;;20.20;51.10;;;;;;5038859;28;19955;-67
2021/12/14 06:46:36;;;;;;;;;;;20.20;51.10;;;;;;5035513;28;19916;-67
2021/12/14 06:49:12;;;;;;;;;;;20.20;51.10;;;;;;5040403;28;19916;-67
2021/12/14 06:51:39;;;;;;;;;;;20.20;51.20;;;;;;5040526;28;19915;-67
2021/12/14 06:54:07;;;;;;;;;;;20.20;51.20;;;;;;5045467;28;19943;-64
2021/12/14 06:56:33;;;;;;;;;;;20.20;51.20;;;;;;5040647;28;19928;-67
2021/12/14 06:59:01;;;;;;;;;;;20.20;51.20;;;;;;5036849;28;19917;-67
2021/12/14 07:01:31;;;;;;;;;;;20.20;51.30;;;;;;5033414;28;19917;-64
2021/12/14 07:04:03;;;;;;;;;;;20.20;51.30;;;;;;5037131;28;19946;-67
2021/12/14 07:06:31;;;;;;;;;;;20.20;51.40;;;;;;5036856;28;20337;-67
2021/12/14 07:09:02;;;;;;;;;;;20.30;51.80;;;;;;5038159;28;19908;-67
2021/12/14 07:11:28;;;;;;;;;;;20.30;51.80;;;;;;5033218;28;19960;-66
2021/12/14 07:13:54;;;;;;;;;;;20.30;51.70;;;;;;5041961;28;20635;-65
2021/12/14 07:16:23;;;;;;;;;;;20.40;51.90;;;;;;5036163;28;19917;-67
2021/12/14 07:18:53;;;;;;;;;;;20.30;52.00;;;;;;5037283;28;19919;-66
2021/12/14 07:21:33;;;;;;;;;;;20.40;52.00;;;;;;5037355;28;19916;-66
2021/12/14 07:23:58;;;;;;;;;;;20.40;52.00;;;;;;5045443;28;19913;-67
2021/12/14 07:26:24;;;;;;;;;;;20.50;52.30;;;;;;5039235;28;20276;-66
2021/12/14 07:28:49;;;;;;;;;;;20.50;52.30;;;;;;5033051;28;19912;-64
2021/12/14 07:31:22;;;;;;;;;;;20.50;52.40;;;;;;5040083;28;19928;-66
2021/12/14 07:33:53;;;;;;;;;;;20.50;52.40;;;;;;5039370;28;20006;-66
2021/12/14 07:36:23;;;;;;;;;;;20.60;52.60;;;;;;5036137;28;19917;-66
2021/12/14 07:38:48;;;;;;;;;;;20.60;53.50;;;;;;5033014;28;19956;-67
2021/12/14 07:41:16;;;;;;;;;;;20.80;53.50;;;;;;5041311;28;19963;-66
2021/12/14 07:43:51;;;;;;;;;;;20.90;53.30;;;;;;5042806;28;20303;-63
2021/12/14 07:46:31;;;;;;;;;;;21.10;53.50;;;;;;5039661;28;20289;-67
2021/12/14 07:48:59;;;;;;;;;;;21.20;53.20;;;;;;5035505;28;19908;-64
2021/12/14 07:51:25;;;;;;;;;;;21.40;53.10;;;;;;5029434;28;20643;-66
2021/12/14 07:53:55;;;;;;;;;;;21.50;52.90;;;;;;5038206;28;19932;-66
2021/12/14 07:56:23;;;;;;;;;;;21.60;52.60;;;;;;5038954;28;19972;-66
2021/12/14 07:58:48;;;;;;;;;;;21.80;52.60;;;;;;5041255;28;20276;-62
2021/12/14 08:01:14;;;;;;;;;;;21.90;52.30;;;;;;5038358;28;19921;-67
2021/12/14 08:03:40;;;;;;;;;;;22.00;52.30;;;;;;5042094;28;20438;-66
2021/12/14 08:06:07;;;;;;;;;;;22.00;52.30;;;;;;5038189;28;20045;-67
2021/12/14 08:08:42;;;;;;;;;;;22.00;52.70;;;;;;5039574;28;19913;-64
2021/12/14 08:14:18;;;;;;;;;;;22.80;51.30;;;;;;5039012;28;19917;-67
2021/12/14 08:16:43;;;;;;;;;;;23.20;50.50;;;;;;5032289;28;19919;-67
2021/12/14 08:19:30;;;;;;;;;;;23.60;49.80;;;;;;5035967;28;19909;-67
2021/12/14 08:21:56;;;;;;;;;;;23.80;49.30;;;;;;5035103;28;19951;-67
2021/12/14 08:24:21;;;;;;;;;;;23.90;49.30;;;;;;5036346;28;19916;-67
2021/12/14 08:26:58;;;;;;;;;;;23.70;49.60;;;;;;5041612;28;19998;-67
2021/12/14 08:29:28;;;;;;;;;;;23.50;50.00;;;;;;5039366;28;19995;-67
2021/12/14 08:31:57;;;;;;;;;;;23.40;50.40;;;;;;5033135;28;19919;-68
2021/12/14 08:34:25;;;;;;;;;;;23.30;50.70;;;;;;5038020;28;20944;-68
2021/12/14 08:36:53;;;;;;;;;;;23.20;50.90;;;;;;5034250;28;19919;-68
2021/12/14 08:39:30;;;;;;;;;;;23.20;51.10;;;;;;5035590;28;19912;-66
2021/12/14 08:42:12;;;;;;;;;;;23.10;51.10;;;;;;5041698;28;19908;-67
2021/12/14 08:44:40;;;;;;;;;;;23.10;51.10;;;;;;5038881;28;19912;-68
2021/12/14 08:47:11;;;;;;;;;;;23.10;51.10;;;;;;5039119;28;19943;-67
2021/12/14 08:49:37;;;;;;;;;;;23.10;51.30;;;;;;5041462;28;19912;-65
2021/12/14 08:52:04;;;;;;;;;;;23.00;51.20;;;;;;5036708;28;19912;-63
2021/12/14 08:54:32;;;;;;;;;;;23.00;51.00;;;;;;5039570;28;19920;-67
2021/12/14 08:56:57;;;;;;;;;;;23.10;51.20;;;;;;5044600;28;20525;-67
2021/12/14 08:59:23;;;;;;;;;;;23.10;51.80;;;;;;5041513;28;19909;-67
2021/12/14 09:01:50;;;;;;;;;;;23.40;51.50;;;;;;5040490;28;19971;-68
2021/12/14 09:04:18;;;;;;;;;;;23.80;50.50;;;;;;5035367;28;19909;-67
2021/12/14 09:06:44;;;;;;;;;;;24.20;49.70;;;;;;5041236;28;19912;-67
2021/12/14 09:09:12;;;;;;;;;;;24.50;49.10;;;;;;5043456;28;19923;-67
2021/12/14 09:11:39;;;;;;;;;;;24.80;48.70;;;;;;5041900;28;19916;-67
2021/12/14 09:14:06;;;;;;;;;;;24.70;49.00;;;;;;5041816;28;21735;-67
2021/12/14 09:16:32;;;;;;;;;;;24.50;49.40;;;;;;5030886;28;20269;-64
2021/12/14 09:19:24;;;;;;;;;;;24.30;49.70;;;;;;5042514;28;19917;-68
2021/12/14 09:21:51;;;;;;;;;;;24.20;49.90;;;;;;5041010;28;19915;-67
2021/12/14 09:24:19;;;;;;;;;;;24.10;50.20;;;;;;5043029;28;19913;-68
2021/12/14 09:26:46;;;;;;;;;;;24.00;50.40;;;;;;5044284;28;19957;-67
2021/12/14 09:29:14;;;;;;;;;;;24.00;50.50;;;;;;5042851;28;19912;-67
2021/12/14 09:31:41;;;;;;;;;;;23.90;50.50;;;;;;5046317;28;19921;-67
2021/12/14 09:34:08;;;;;;;;;;;23.90;50.30;;;;;;5042724;28;23252;-67
2021/12/14 09:36:34;;;;;;;;;;;23.90;50.40;;;;;;5034120;28;19908;-63
2021/12/14 09:39:03;;;;;;;;;;;23.90;50.20;;;;;;5043160;28;20466;-63
2021/12/14 09:41:31;;;;;;;;;;;23.90;50.20;;;;;;5039720;28;19951;-66
2021/12/14 09:43:57;;;;;;;;;;;23.80;50.00;;;;;;5042217;28;19924;-67
2021/12/14 09:46:22;;;;;;;;;;;23.70;41.70;;;;;;5052781;28;19917;-67
2021/12/14 09:48:50;;;;;;;;;;;23.60;42.30;;;;;;5055132;28;19919;-67
2021/12/14 09:51:18;;;;;;;;;;;23.60;44.00;;;;;;5045148;28;19909;-67
2021/12/14 09:53:46;;;;;;;;;;;23.60;45.10;;;;;;5053338;28;19952;-67
2021/12/14 09:56:13;;;;;;;;;;;23.60;45.70;;;;;;5050526;28;19913;-67
2021/12/14 09:58:41;;;;;;;;;;;23.60;46.10;;;;;;5045067;28;20293;-67
2021/12/14 10:01:09;;;;;;;;;;;23.60;46.40;;;;;;5053153;28;19924;-67
2021/12/14 10:03:35;;;;;;;;;;;23.60;46.60;;;;;;5043492;28;20324;-67
2021/12/14 10:06:03;;;;;;;;;;;23.60;47.30;;;;;;5051009;28;19916;-65
2021/12/14 10:08:33;;;;;;;;;;;23.60;47.20;;;;;;5056862;28;19919;-67
2021/12/14 10:11:34;;;;;;;;;;;23.60;47.30;;;;;;5048391;28;20367;-63
2021/12/14 10:14:00;;;;;;;;;;;23.70;47.50;;;;;;5044453;28;20391;-67
2021/12/14 10:16:25;;;;;;;;;;;23.70;48.30;;;;;;5050866;28;20082;-67
2021/12/14 10:18:54;;;;;;;;;;;23.70;48.20;;;;;;5050556;28;19916;-67
2021/12/14 10:21:31;;;;;;;;;;;23.70;48.00;;;;;;5049174;28;19909;-67
2021/12/14 10:23:57;;;;;;;;;;;23.70;48.40;;;;;;5059030;28;19916;-67
2021/12/14 10:26:24;;;;;;;;;;;23.70;48.50;;;;;;5045666;28;19946;-67
2021/12/14 10:28:51;;;;;;;;;;;23.70;48.60;;;;;;5044035;28;19913;-67
2021/12/14 10:31:26;;;;;;;;;;;23.70;49.20;;;;;;5044867;28;19916;-67
2021/12/14 10:33:52;;;;;;;;;;;23.70;49.20;;;;;;5043243;28;20438;-67
2021/12/14 10:36:28;;;;;;;;;;;23.70;49.00;;;;;;5043681;28;19985;-68
2021/12/14 10:39:38;;;;;;;;;;;23.70;49.20;;;;;;5042942;28;19920;-66
2021/12/14 10:44:44;;;;;;;;;;;23.70;49.80;;;;;;5021814;28;19917;-64
2021/12/14 10:47:11;;;;;;;;;;;23.80;49.80;;;;;;5045509;28;19909;-67
2021/12/14 10:49:37;;;;;;;;;;;23.80;49.90;;;;;;5039583;28;19923;-66
2021/12/14 10:52:06;;;;;;;;;;;23.80;49.70;;;;;;5038439;28;19942;-65
2021/12/14 10:54:32;;;;;;;;;;;23.80;49.50;;;;;;5041646;28;19935;-67
2021/12/14 10:56:59;;;;;;;;;;;23.90;49.80;;;;;;5043865;28;19919;-67
2021/12/14 10:59:27;;;;;;;;;;;23.90;49.70;;;;;;5043576;28;19924;-66
2021/12/14 11:01:53;;;;;;;;;;;23.80;49.70;;;;;;5042978;28;19916;-67
2021/12/14 11:04:34;;;;;;;;;;;23.80;49.90;;;;;;5042912;28;20150;-64
2021/12/14 11:07:01;;;;;;;;;;;23.90;50.20;;;;;;5037245;28;19957;-67
2021/12/14 11:09:41;;;;;;;;;;;23.90;50.40;;;;;;5044765;28;20336;-67
2021/12/14 11:12:08;;;;;;;;;;;23.90;50.20;;;;;;5041281;28;19988;-67
2021/12/14 11:14:37;;;;;;;;;;;23.90;50.00;;;;;;5042526;28;19920;-67
2021/12/14 11:19:56;;;;;;;;;;;23.90;45.50;;;;;;5041719;28;19951;-67
2021/12/14 11:22:22;;;;;;;;;;;23.80;43.90;;;;;;5041925;28;19920;-68
2021/12/14 11:24:50;;;;;;;;;;;23.70;43.80;;;;;;5042108;28;19912;-67
2021/12/14 11:27:19;;;;;;;;;;;23.70;43.50;;;;;;5040672;28;19988;-67
2021/12/14 11:29:45;;;;;;;;;;;23.60;43.70;;;;;;5045139;28;19912;-68
2021/12/14 11:32:21;;;;;;;;;;;23.60;43.90;;;;;;5036451;28;19979;-67
2021/12/14 11:34:47;;;;;;;;;;;23.50;43.60;;;;;;5042970;28;19962;-68
2021/12/14 11:37:16;;;;;;;;;;;23.50;43.80;;;;;;5044999;28;19939;-67
2021/12/14 11:39:47;;;;;;;;;;;23.50;43.80;;;;;;5044326;28;19913;-67
2021/12/14 11:42:18;;;;;;;;;;;23.40;43.90;;;;;;5040833;28;19959;-63
2021/12/14 11:44:47;;;;;;;;;;;23.40;44.00;;;;;;5043968;28;19982;-67
2021/12/14 11:50:10;;;;;;;;;;;23.30;44.10;;;;;;5041056;28;19908;-65
2021/12/14 11:52:35;;;;;;;;;;;23.30;44.20;;;;;;5043480;28;19999;-63
2021/12/14 11:55:14;;;;;;;;;;;23.30;44.50;;;;;;5041949;28;20025;-67
2021/12/14 11:57:39;;;;;;;;;;;23.30;44.50;;;;;;5044634;28;20833;-67
2021/12/14 12:00:06;;;;;;;;;;;23.30;44.50;;;;;;5042383;28;19917;-64
2021/12/14 12:02:32;;;;;;;;;;;23.30;44.60;;;;;;5045027;28;19917;-66
2021/12/14 12:04:57;;;;;;;;;;;23.30;44.70;;;;;;5042811;28;19919;-67
2021/12/14 12:10:08;;;;;;;;;;;23.30;44.80;;;;;;5037707;28;19931;-62
2021/12/14 12:12:36;;;;;;;;;;;23.20;44.70;;;;;;5042650;28;19912;-67
2021/12/14 12:15:30;;;;;;;;;;;23.20;44.70;;;;;;5042680;28;19913;-67
2021/12/14 12:18:00;;;;;;;;;;;23.20;45.10;;;;;;5036715;28;20402;-67
2021/12/14 12:20:27;;;;;;;;;;;23.20;45.50;;;;;;5038587;28;19913;-67
2021/12/14 12:22:57;;;;;;;;;;;23.20;45.70;;;;;;5036772;28;20038;-66
2021/12/14 12:25:25;;;;;;;;;;;23.20;46.00;;;;;;5042167;28;19995;-67
2021/12/14 12:27:55;;;;;;;;;;;23.20;46.20;;;;;;5044033;28;19966;-67
2021/12/14 12:30:36;;;;;;;;;;;23.20;46.70;;;;;;5040773;28;20325;-67
2021/12/14 12:33:06;;;;;;;;;;;23.20;46.90;;;;;;5043674;28;19919;-65
2021/12/14 12:35:32;;;;;;;;;;;23.20;46.90;;;;;;5038017;28;20023;-66
2021/12/14 12:37:59;;;;;;;;;;;23.30;47.00;;;;;;5045160;28;19921;-67
2021/12/14 12:40:46;;;;;;;;;;;23.30;47.20;;;;;;5037646;28;20609;-66
2021/12/14 12:43:13;;;;;;;;;;;23.40;47.40;;;;;;5043834;28;19912;-67
2021/12/14 12:45:41;;;;;;;;;;;23.30;47.50;;;;;;5044582;28;19997;-67
2021/12/14 12:48:06;;;;;;;;;;;23.30;48.20;;;;;;5039161;28;20447;-67
2021/12/14 12:50:33;;;;;;;;;;;23.40;47.90;;;;;;5039164;28;19936;-67
2021/12/14 12:52:59;;;;;;;;;;;23.40;48.00;;;;;;5038107;28;19920;-67
2021/12/14 12:55:30;;;;;;;;;;;23.40;48.00;;;;;;5038321;28;20432;-63
2021/12/14 12:58:09;;;;;;;;;;;23.40;48.00;;;;;;5040626;28;19917;-67
2021/12/14 13:00:38;;;;;;;;;;;23.40;48.60;;;;;;5041404;28;20008;-67
2021/12/14 13:03:08;;;;;;;;;;;23.50;48.40;;;;;;5043478;28;20035;-64
2021/12/14 13:05:37;;;;;;;;;;;23.40;48.50;;;;;;5041889;28;20023;-67
2021/12/14 13:08:15;;;;;;;;;;;23.40;48.50;;;;;;5050055;28;19967;-67
2021/12/14 13:10:43;;;;;;;;;;;23.50;49.20;;;;;;5048316;28;19940;-67
2021/12/14 13:13:14;;;;;;;;;;;23.50;48.90;;;;;;5047345;28;19969;-73
2021/12/14 13:15:39;;;;;;;;;;;23.50;48.70;;;;;;5046697;28;19977;-74
2021/12/14 13:18:23;;;;;;;;;;;23.50;49.00;;;;;;5046576;28;20431;-68
2021/12/14 13:20:50;;;;;;;;;;;23.50;48.90;;;;;;5041447;28;19952;-66
2021/12/14 13:23:18;;;;;;;;;;;23.60;48.90;;;;;;5047896;28;19988;-75
2021/12/14 13:25:43;;;;;;;;;;;23.60;49.00;;;;;;5041516;28;19919;-68
2021/12/14 13:28:12;;;;;;;;;;;23.60;48.90;;;;;;5045200;28;19912;-70
2021/12/14 13:30:37;;;;;;;;;;;23.60;49.20;;;;;;5046361;28;20371;-71
2021/12/14 13:33:03;;;;;;;;;;;23.60;49.20;;;;;;5046498;28;19909;-67
2021/12/14 13:35:31;;;;;;;;;;;23.70;49.50;;;;;;5041698;28;19917;-71
2021/12/14 13:38:00;;;;;;;;;;;23.70;49.30;;;;;;5040570;28;20254;-70
2021/12/14 13:40:26;;;;;;;;;;;23.70;47.40;;;;;;5040873;28;20299;-73
2021/12/14 13:42:58;;;;;;;;;;;23.70;47.10;;;;;;5041476;28;19913;-68
2021/12/14 13:45:26;;;;;;;;;;;23.60;47.30;;;;;;5043771;28;19920;-70
2021/12/14 13:47:52;;;;;;;;;;;23.60;47.30;;;;;;5039278;28;19994;-67
2021/12/14 13:50:24;;;;;;;;;;;23.60;45.80;;;;;;5041688;28;20657;-72
2021/12/14 13:52:51;;;;;;;;;;;23.50;45.20;;;;;;5042821;28;19920;-75
2021/12/14 13:55:18;;;;;;;;;;;23.50;45.50;;;;;;5042895;28;19919;-74
2021/12/14 13:57:50;;;;;;;;;;;23.50;45.20;;;;;;5060907;28;19936;-73
2021/12/14 14:00:20;;;;;;;;;;;23.50;45.30;;;;;;5045690;28;20417;-71
2021/12/14 14:02:46;;;;;;;;;;;23.50;45.20;;;;;;5045250;28;19917;-73
2021/12/14 14:05:12;;;;;;;;;;;23.40;45.20;;;;;;5039512;28;19916;-69
2021/12/14 14:07:37;;;;;;;;;;;23.40;45.20;;;;;;5044352;28;19959;-68
2021/12/14 14:10:05;;;;;;;;;;;23.40;45.30;;;;;;5046702;28;19912;-76
2021/12/14 14:12:41;;;;;;;;;;;23.40;45.30;;;;;;5046390;28;19948;-67
2021/12/14 14:15:12;;;;;;;;;;;23.40;45.50;;;;;;5045582;28;20303;-66
2021/12/14 14:17:45;;;;;;;;;;;23.40;45.50;;;;;;5040820;28;20424;-72
2021/12/14 14:20:14;;;;;;;;;;;23.30;45.50;;;;;;5042795;28;19991;-68
2021/12/14 14:22:40;;;;;;;;;;;23.30;45.50;;;;;;5044674;28;19919;-72
2021/12/14 14:25:08;;;;;;;;;;;23.30;45.50;;;;;;5041182;28;20356;-72
2021/12/14 14:27:42;;;;;;;;;;;23.30;45.60;;;;;;5041873;28;19958;-73
2021/12/14 14:30:20;;;;;;;;;;;23.30;45.60;;;;;;5043331;28;19916;-73
2021/12/14 14:33:12;;;;;;;;;;;23.30;45.70;;;;;;5043912;28;19909;-75
2021/12/14 14:35:43;;;;;;;;;;;23.20;45.60;;;;;;5040190;28;19916;-74
2021/12/14 14:38:28;;;;;;;;;;;23.20;45.80;;;;;;5040394;28;19916;-68
2021/12/14 14:41:00;;;;;;;;;;;23.20;45.80;;;;;;5040386;28;19962;-68
2021/12/14 14:43:53;;;;;;;;;;;23.20;45.80;;;;;;5044512;28;19913;-71
2021/12/14 14:46:37;;;;;;;;;;;23.20;45.90;;;;;;5039296;28;19987;-74
2021/12/14 14:49:03;;;;;;;;;;;23.20;45.90;;;;;;5041003;28;19979;-68
2021/12/14 14:51:44;;;;;;;;;;;23.20;45.90;;;;;;5041100;28;19908;-70
2021/12/14 14:54:41;;;;;;;;;;;23.20;45.90;;;;;;5042098;28;19919;-67
2021/12/14 14:57:06;;;;;;;;;;;23.20;46.00;;;;;;5035300;28;19909;-73
2021/12/14 14:59:33;;;;;;;;;;;23.10;46.10;;;;;;5059143;28;19913;-68
2021/12/14 15:01:58;;;;;;;;;;;23.10;46.10;;;;;;5042782;28;19917;-71
2021/12/14 15:04:24;;;;;;;;;;;23.10;46.00;;;;;;5044089;28;20027;-67
2021/12/14 15:06:50;;;;;;;;;;;23.10;46.10;;;;;;5044963;28;19996;-71